PWSweather.com
Personal Weather Stations
Station Observations
WXFCSTR1
Meadowcroft Subdivision, Sumter, SC 29154

Meadowcroft SubdivisionSumter, SC 29154

Lat: 33.887835, Lon: -80.411964

Elevation: 100

Station Type: Ambient Weather WS-2080

Latest ConditionsUpdated 1:40:00 PM EDT Thursday, Jul 24, 2014
Currently Today's Max Today's Min Today's Average
Temperature 90.0°F32.2°C 90.0°F32.2°C 74.6°F23.7°C 79.6°F26.4°C
Dew Point 73.2°F22.9°C 76.5°F24.7°C 71.8°F22.1°C 74.1°F23.4°C
Winds 6.4 mph SSW10.3 kmh SSW 11.0 mph W17.7 kmh W - 2.4 mph 3.9 kmh
Wind Gusts 10.1 mph16.3 kmh 19.3 mph31.1 kmh - -
Humidity 58% 97% 57% 85%
Pressure 29.89 in1012.2 mb 29.95 in1014.2 mb 29.89 in1012.2 mb -
Hour Temp Dew Point Humidity Winds Wind Gusts Pressure Precip Precip Rate Daily Precip Total
01:40 PM 90.0°F32.2°C 73.2°F22.9°C 58% 6.4 mph SSW10.3 kmh SSW 10.1 mph16.3 kmh 29.89 in1012.2 mb 0.00 in0.0 mm 0.00 in/hr0.0 mm/hr 0.00 in0.0 mm
01:30 PM 89.8°F32.1°C 72.5°F22.5°C 57% 2.9 mph SE4.7 kmh SE 6.0 mph9.7 kmh 29.89 in1012.2 mb 0.00 in0.0 mm 0.00 in/hr0.0 mm/hr 0.00 in0.0 mm
01:20 PM 89.6°F32.0°C 73.4°F23.0°C 59% 9.5 mph WNW15.3 kmh WNW 14.3 mph23.0 kmh 29.90 in1012.5 mb 0.00 in0.0 mm 0.00 in/hr0.0 mm/hr 0.00 in0.0 mm
01:10 PM 89.1°F31.7°C 71.8°F22.1°C 57% 7.9 mph W12.7 kmh W 14.3 mph23.0 kmh 29.90 in1012.5 mb 0.00 in0.0 mm 0.00 in/hr0.0 mm/hr 0.00 in0.0 mm
01:00 PM 88.9°F31.6°C 72.7°F22.6°C 59% 4.7 mph SSW7.6 kmh SSW 12.2 mph19.6 kmh 29.91 in1012.9 mb 0.00 in0.0 mm 0.00 in/hr0.0 mm/hr 0.00 in0.0 mm
12:50 PM 88.5°F31.4°C 71.9°F22.2°C 58% 6.4 mph SW10.3 kmh SW 11.0 mph17.7 kmh 29.92 in1013.2 mb 0.00 in0.0 mm 0.00 in/hr0.0 mm/hr 0.00 in0.0 mm
12:40 PM 89.1°F31.7°C 73.4°F23.0°C 60% 5.7 mph W9.2 kmh W 12.2 mph19.6 kmh 29.92 in1013.2 mb 0.00 in0.0 mm 0.00 in/hr0.0 mm/hr 0.00 in0.0 mm
12:30 PM 88.5°F31.4°C 73.3°F22.9°C 61% 11.0 mph W17.7 kmh W 19.3 mph31.1 kmh 29.93 in1013.5 mb 0.00 in0.0 mm 0.00 in/hr0.0 mm/hr 0.00 in0.0 mm
12:20 PM 88.2°F31.2°C 73.5°F23.1°C 62% 5.1 mph WSW8.2 kmh WSW 12.2 mph19.6 kmh 29.92 in1013.2 mb 0.00 in0.0 mm 0.00 in/hr0.0 mm/hr 0.00 in0.0 mm
12:10 PM 88.0°F31.1°C 73.8°F23.2°C 63% 6.4 mph WSW10.3 kmh WSW 12.2 mph19.6 kmh 29.93 in1013.5 mb 0.00 in0.0 mm 0.00 in/hr0.0 mm/hr 0.00 in0.0 mm
12:00 PM 87.6°F30.9°C 73.5°F23.1°C 63% 5.4 mph W8.7 kmh W 9.2 mph14.8 kmh 29.92 in1013.2 mb 0.00 in0.0 mm 0.00 in/hr0.0 mm/hr 0.00 in0.0 mm
11:50 AM 87.3°F30.7°C 73.7°F23.2°C 64% 3.9 mph NW6.3 kmh NW 8.0 mph12.9 kmh 29.92 in1013.2 mb 0.00 in0.0 mm 0.00 in/hr0.0 mm/hr 0.00 in0.0 mm
11:40 AM 87.1°F30.6°C 73.4°F23.0°C 64% 7.1 mph WSW11.4 kmh WSW 14.3 mph23.0 kmh 29.93 in1013.5 mb 0.00 in0.0 mm 0.00 in/hr0.0 mm/hr 0.00 in0.0 mm
11:30 AM 86.9°F30.5°C 73.3°F22.9°C 64% 7.5 mph WSW12.1 kmh WSW 12.2 mph19.6 kmh 29.93 in1013.5 mb 0.00 in0.0 mm 0.00 in/hr0.0 mm/hr 0.00 in0.0 mm
11:20 AM 86.7°F30.4°C 75.3°F24.1°C 69% 6.1 mph WNW9.8 kmh WNW 18.2 mph29.3 kmh 29.93 in1013.5 mb 0.00 in0.0 mm 0.00 in/hr0.0 mm/hr 0.00 in0.0 mm
11:10 AM 86.2°F30.1°C 74.8°F23.8°C 69% 3.6 mph WNW5.8 kmh WNW 10.1 mph16.3 kmh 29.93 in1013.5 mb 0.00 in0.0 mm 0.00 in/hr0.0 mm/hr 0.00 in0.0 mm
11:00 AM 86.0°F30.0°C 75.1°F23.9°C 70% 7.5 mph NW12.1 kmh NW 12.2 mph19.6 kmh 29.93 in1013.5 mb 0.00 in0.0 mm 0.00 in/hr0.0 mm/hr 0.00 in0.0 mm
10:50 AM 85.8°F29.9°C 75.3°F24.1°C 71% 4.8 mph WSW7.7 kmh WSW 11.0 mph17.7 kmh 29.93 in1013.5 mb 0.00 in0.0 mm 0.00 in/hr0.0 mm/hr 0.00 in0.0 mm
10:40 AM 85.1°F29.5°C 75.1°F23.9°C 72% 2.5 mph SW4.0 kmh SW 8.0 mph12.9 kmh 29.93 in1013.5 mb 0.00 in0.0 mm 0.00 in/hr0.0 mm/hr 0.00 in0.0 mm
10:30 AM 84.7°F29.3°C 75.1°F23.9°C 73% 7.2 mph SW11.6 kmh SW 10.1 mph16.3 kmh 29.93 in1013.5 mb 0.00 in0.0 mm 0.00 in/hr0.0 mm/hr 0.00 in0.0 mm
10:20 AM 84.2°F29.0°C 75.0°F23.9°C 74% 2.7 mph WSW4.3 kmh WSW 6.0 mph9.7 kmh 29.93 in1013.5 mb 0.00 in0.0 mm 0.00 in/hr0.0 mm/hr 0.00 in0.0 mm
10:10 AM 83.7°F28.7°C 75.3°F24.1°C 76% 7.4 mph NW11.9 kmh NW 11.0 mph17.7 kmh 29.93 in1013.5 mb 0.00 in0.0 mm 0.00 in/hr0.0 mm/hr 0.00 in0.0 mm
10:00 AM 83.1°F28.4°C 75.9°F24.4°C 79% 2.6 mph SW4.2 kmh SW 9.2 mph14.8 kmh 29.93 in1013.5 mb 0.00 in0.0 mm 0.00 in/hr0.0 mm/hr 0.00 in0.0 mm
09:50 AM 82.6°F28.1°C 76.5°F24.7°C 82% 3.0 mph W4.8 kmh W 7.1 mph11.4 kmh 29.93 in1013.5 mb 0.00 in0.0 mm 0.00 in/hr0.0 mm/hr 0.00 in0.0 mm
09:40 AM 81.7°F27.6°C 76.1°F24.5°C 83% 4.5 mph SW7.2 kmh SW 7.1 mph11.4 kmh 29.93 in1013.5 mb 0.00 in0.0 mm 0.00 in/hr0.0 mm/hr 0.00 in0.0 mm
09:30 AM 81.3°F27.4°C 75.7°F24.3°C 83% 2.9 mph SW4.7 kmh SW 6.0 mph9.7 kmh 29.93 in1013.5 mb 0.00 in0.0 mm 0.00 in/hr0.0 mm/hr 0.00 in0.0 mm
09:20 AM 80.6°F27.0°C 75.3°F24.1°C 84% 2.7 mph SW4.3 kmh SW 4.2 mph6.8 kmh 29.93 in1013.5 mb 0.00 in0.0 mm 0.00 in/hr0.0 mm/hr 0.00 in0.0 mm
09:10 AM 80.0°F26.7°C 75.5°F24.2°C 86% 2.5 mph WSW4.0 kmh WSW 8.0 mph12.9 kmh 29.93 in1013.5 mb 0.00 in0.0 mm 0.00 in/hr0.0 mm/hr 0.00 in0.0 mm
09:00 AM 79.3°F26.3°C 75.5°F24.2°C 88% 4.2 mph W6.8 kmh W 7.1 mph11.4 kmh 29.93 in1013.5 mb 0.00 in0.0 mm 0.00 in/hr0.0 mm/hr 0.00 in0.0 mm
08:50 AM 78.9°F26.1°C 75.8°F24.3°C 90% 2.0 mph E3.2 kmh E 5.1 mph8.2 kmh 29.93 in1013.5 mb 0.00 in0.0 mm 0.00 in/hr0.0 mm/hr 0.00 in0.0 mm
08:40 AM 78.4°F25.8°C 75.6°F24.2°C 91% 3.6 mph SW5.8 kmh SW 5.1 mph8.2 kmh 29.93 in1013.5 mb 0.00 in0.0 mm 0.00 in/hr0.0 mm/hr 0.00 in0.0 mm
08:30 AM 77.9°F25.5°C 75.3°F24.1°C 92% 4.4 mph W7.1 kmh W 8.0 mph12.9 kmh 29.93 in1013.5 mb 0.00 in0.0 mm 0.00 in/hr0.0 mm/hr 0.00 in0.0 mm
08:20 AM 77.2°F25.1°C 75.3°F24.1°C 94% 5.0 mph W8.0 kmh W 11.0 mph17.7 kmh 29.93 in1013.5 mb 0.00 in0.0 mm 0.00 in/hr0.0 mm/hr 0.00 in0.0 mm
08:10 AM 76.6°F24.8°C 75.1°F23.9°C 95% 4.0 mph SW6.4 kmh SW 7.1 mph11.4 kmh 29.93 in1013.5 mb 0.00 in0.0 mm 0.00 in/hr0.0 mm/hr 0.00 in0.0 mm
08:00 AM 76.1°F24.5°C 74.6°F23.7°C 95% 2.0 mph S3.2 kmh S 5.1 mph8.2 kmh 29.93 in1013.5 mb 0.00 in0.0 mm 0.00 in/hr0.0 mm/hr 0.00 in0.0 mm
07:50 AM 75.7°F24.3°C 74.8°F23.8°C 97% 2.3 mph S3.7 kmh S 6.0 mph9.7 kmh 29.93 in1013.5 mb 0.00 in0.0 mm 0.00 in/hr0.0 mm/hr 0.00 in0.0 mm
07:40 AM 75.5°F24.2°C 74.6°F23.7°C 97% 0.7 mph SW1.1 kmh SW 4.2 mph6.8 kmh 29.93 in1013.5 mb 0.00 in0.0 mm 0.00 in/hr0.0 mm/hr 0.00 in0.0 mm
07:30 AM 75.2°F24.0°C 74.3°F23.5°C 97% Calm Calm 0.9 mph1.4 kmh 29.92 in1013.2 mb 0.00 in0.0 mm 0.00 in/hr0.0 mm/hr 0.00 in0.0 mm
07:20 AM 75.0°F23.9°C 73.8°F23.2°C 96% 0.8 mph SW1.3 kmh SW 4.2 mph6.8 kmh 29.92 in1013.2 mb 0.00 in0.0 mm 0.00 in/hr0.0 mm/hr 0.00 in0.0 mm
07:10 AM 74.8°F23.8°C 73.6°F23.1°C 96% Calm Calm 3.0 mph4.8 kmh 29.92 in1013.2 mb 0.00 in0.0 mm 0.00 in/hr0.0 mm/hr 0.00 in0.0 mm
07:00 AM 74.7°F23.7°C 73.4°F23.0°C 96% 0.9 mph WSW1.4 kmh WSW 3.0 mph4.8 kmh 29.92 in1013.2 mb 0.00 in0.0 mm 0.00 in/hr0.0 mm/hr 0.00 in0.0 mm
06:50 AM 74.6°F23.7°C 73.4°F23.0°C 96% 0.9 mph WSW1.4 kmh WSW 3.0 mph4.8 kmh 29.92 in1013.2 mb 0.00 in0.0 mm 0.00 in/hr0.0 mm/hr 0.00 in0.0 mm
06:40 AM 74.7°F23.7°C 73.4°F23.0°C 96% Calm Calm -- 29.91 in1012.9 mb 0.00 in0.0 mm 0.00 in/hr0.0 mm/hr 0.00 in0.0 mm
06:30 AM 74.7°F23.7°C 73.4°F23.0°C 96% Calm Calm -- 29.91 in1012.9 mb 0.00 in0.0 mm 0.00 in/hr0.0 mm/hr 0.00 in0.0 mm
06:20 AM 74.7°F23.7°C 73.1°F22.8°C 95% Calm Calm -- 29.91 in1012.9 mb 0.00 in0.0 mm 0.00 in/hr0.0 mm/hr 0.00 in0.0 mm
06:10 AM 74.7°F23.7°C 73.1°F22.8°C 95% Calm Calm -- 29.91 in1012.9 mb 0.00 in0.0 mm 0.00 in/hr0.0 mm/hr 0.00 in0.0 mm
06:00 AM 74.8°F23.8°C 73.3°F22.9°C 95% Calm Calm -- 29.91 in1012.9 mb 0.00 in0.0 mm 0.00 in/hr0.0 mm/hr 0.00 in0.0 mm
05:50 AM 74.8°F23.8°C 73.3°F22.9°C 95% Calm Calm 2.1 mph3.4 kmh 29.90 in1012.5 mb 0.00 in0.0 mm 0.00 in/hr0.0 mm/hr 0.00 in0.0 mm
05:40 AM 74.8°F23.8°C 73.3°F22.9°C 95% Calm Calm 0.9 mph1.4 kmh 29.91 in1012.9 mb 0.00 in0.0 mm 0.00 in/hr0.0 mm/hr 0.00 in0.0 mm
05:30 AM 75.0°F23.9°C 73.5°F23.1°C 95% Calm Calm -- 29.90 in1012.5 mb 0.00 in0.0 mm 0.00 in/hr0.0 mm/hr 0.00 in0.0 mm
05:20 AM 75.2°F24.0°C 73.7°F23.2°C 95% Calm Calm -- 29.91 in1012.9 mb 0.00 in0.0 mm 0.00 in/hr0.0 mm/hr 0.00 in0.0 mm
05:10 AM 75.4°F24.1°C 73.8°F23.2°C 95% Calm Calm 0.9 mph1.4 kmh 29.91 in1012.9 mb 0.00 in0.0 mm 0.00 in/hr0.0 mm/hr 0.00 in0.0 mm
05:00 AM 75.6°F24.2°C 74.0°F23.3°C 95% Calm Calm -- 29.91 in1012.9 mb 0.00 in0.0 mm 0.00 in/hr0.0 mm/hr 0.00 in0.0 mm
04:50 AM 75.7°F24.3°C 74.2°F23.4°C 95% Calm Calm 0.9 mph1.4 kmh 29.91 in1012.9 mb 0.00 in0.0 mm 0.00 in/hr0.0 mm/hr 0.00 in0.0 mm
04:40 AM 75.9°F24.4°C 74.4°F23.6°C 95% Calm Calm -- 29.91 in1012.9 mb 0.00 in0.0 mm 0.00 in/hr0.0 mm/hr 0.00 in0.0 mm
04:30 AM 75.9°F24.4°C 74.4°F23.6°C 95% Calm Calm 3.0 mph4.8 kmh 29.91 in1012.9 mb 0.00 in0.0 mm 0.00 in/hr0.0 mm/hr 0.00 in0.0 mm
04:20 AM 76.1°F24.5°C 73.9°F23.3°C 93% 0.9 mph SSW1.4 kmh SSW 3.0 mph4.8 kmh 29.91 in1012.9 mb 0.00 in0.0 mm 0.00 in/hr0.0 mm/hr 0.00 in0.0 mm
04:10 AM 76.1°F24.5°C 73.9°F23.3°C 93% 0.6 mph SSW1.0 kmh SSW 4.2 mph6.8 kmh 29.91 in1012.9 mb 0.00 in0.0 mm 0.00 in/hr0.0 mm/hr 0.00 in0.0 mm
04:00 AM 76.1°F24.5°C 73.9°F23.3°C 93% 0.2 mph WSW0.3 kmh WSW 3.0 mph4.8 kmh 29.91 in1012.9 mb 0.00 in0.0 mm 0.00 in/hr0.0 mm/hr 0.00 in0.0 mm
03:50 AM 76.1°F24.5°C 73.9°F23.3°C 93% 1.6 mph SW2.6 kmh SW 4.2 mph6.8 kmh 29.91 in1012.9 mb 0.00 in0.0 mm 0.00 in/hr0.0 mm/hr 0.00 in0.0 mm
03:40 AM 76.3°F24.6°C 73.8°F23.2°C 92% Calm Calm 0.9 mph1.4 kmh 29.92 in1013.2 mb 0.00 in0.0 mm 0.00 in/hr0.0 mm/hr 0.00 in0.0 mm
03:30 AM 76.3°F24.6°C 73.8°F23.2°C 92% Calm Calm 2.1 mph3.4 kmh 29.92 in1013.2 mb 0.00 in0.0 mm 0.00 in/hr0.0 mm/hr 0.00 in0.0 mm
03:20 AM 76.5°F24.7°C 74.0°F23.3°C 92% 1.6 mph W2.6 kmh W 4.2 mph6.8 kmh 29.93 in1013.5 mb 0.00 in0.0 mm 0.00 in/hr0.0 mm/hr 0.00 in0.0 mm
03:10 AM 76.6°F24.8°C 74.1°F23.4°C 92% Calm Calm -- 29.93 in1013.5 mb 0.00 in0.0 mm 0.00 in/hr0.0 mm/hr 0.00 in0.0 mm
03:00 AM 76.6°F24.8°C 74.1°F23.4°C 92% 2.0 mph W3.2 kmh W 4.2 mph6.8 kmh 29.94 in1013.9 mb 0.00 in0.0 mm 0.00 in/hr0.0 mm/hr 0.00 in0.0 mm
02:50 AM 76.6°F24.8°C 74.1°F23.4°C 92% 0.2 mph WSW0.3 kmh WSW 3.0 mph4.8 kmh 29.93 in1013.5 mb 0.00 in0.0 mm 0.00 in/hr0.0 mm/hr 0.00 in0.0 mm
02:40 AM 76.6°F24.8°C 74.1°F23.4°C 92% 0.2 mph NNW0.3 kmh NNW 2.1 mph3.4 kmh 29.93 in1013.5 mb 0.00 in0.0 mm 0.00 in/hr0.0 mm/hr 0.00 in0.0 mm
02:30 AM 76.6°F24.8°C 74.1°F23.4°C 92% 0.5 mph SSE0.8 kmh SSE 4.2 mph6.8 kmh 29.94 in1013.9 mb 0.00 in0.0 mm 0.00 in/hr0.0 mm/hr 0.00 in0.0 mm
02:20 AM 76.7°F24.8°C 73.9°F23.3°C 91% 0.6 mph SSW1.0 kmh SSW 2.1 mph3.4 kmh 29.94 in1013.9 mb 0.00 in0.0 mm 0.00 in/hr0.0 mm/hr 0.00 in0.0 mm
02:10 AM 76.8°F24.9°C 74.0°F23.3°C 91% 1.7 mph SE2.7 kmh SE 3.0 mph4.8 kmh 29.94 in1013.9 mb 0.00 in0.0 mm 0.00 in/hr0.0 mm/hr 0.00 in0.0 mm
02:00 AM 76.8°F24.9°C 74.0°F23.3°C 91% 0.9 mph WSW1.4 kmh WSW 2.1 mph3.4 kmh 29.94 in1013.9 mb 0.00 in0.0 mm 0.00 in/hr0.0 mm/hr 0.00 in0.0 mm
01:50 AM 76.8°F24.9°C 74.0°F23.3°C 91% 1.4 mph SW2.3 kmh SW 5.1 mph8.2 kmh 29.95 in1014.2 mb 0.00 in0.0 mm 0.00 in/hr0.0 mm/hr 0.00 in0.0 mm
01:40 AM 77.2°F25.1°C 74.3°F23.5°C 91% 0.7 mph S1.1 kmh S 3.0 mph4.8 kmh 29.95 in1014.2 mb 0.00 in0.0 mm 0.00 in/hr0.0 mm/hr 0.00 in0.0 mm
01:30 AM 77.2°F25.1°C 74.3°F23.5°C 91% Calm Calm -- 29.95 in1014.2 mb 0.00 in0.0 mm 0.00 in/hr0.0 mm/hr 0.00 in0.0 mm
01:20 AM 77.2°F25.1°C 74.0°F23.3°C 90% 1.2 mph SSE1.9 kmh SSE 4.2 mph6.8 kmh 29.95 in1014.2 mb 0.00 in0.0 mm 0.00 in/hr0.0 mm/hr 0.00 in0.0 mm
01:10 AM 77.2°F25.1°C 74.0°F23.3°C 90% 0.4 mph WNW0.6 kmh WNW 3.0 mph4.8 kmh 29.95 in1014.2 mb 0.00 in0.0 mm 0.00 in/hr0.0 mm/hr 0.00 in0.0 mm
01:00 AM 77.4°F25.2°C 73.9°F23.3°C 89% 1.3 mph S2.1 kmh S 3.0 mph4.8 kmh 29.95 in1014.2 mb 0.00 in0.0 mm 0.00 in/hr0.0 mm/hr 0.00 in0.0 mm
12:50 AM 77.4°F25.2°C 73.6°F23.1°C 88% 2.0 mph SE3.2 kmh SE 3.0 mph4.8 kmh 29.95 in1014.2 mb 0.00 in0.0 mm 0.00 in/hr0.0 mm/hr 0.00 in0.0 mm
12:40 AM 77.5°F25.3°C 73.7°F23.2°C 88% Calm Calm -- 29.95 in1014.2 mb 0.00 in0.0 mm 0.00 in/hr0.0 mm/hr 0.00 in0.0 mm
12:30 AM 77.7°F25.4°C 73.9°F23.3°C 88% 0.9 mph S1.4 kmh S 2.1 mph3.4 kmh 29.95 in1014.2 mb 0.00 in0.0 mm 0.00 in/hr0.0 mm/hr 0.00 in0.0 mm
12:20 AM 77.7°F25.4°C 73.5°F23.1°C 87% Calm Calm 2.1 mph3.4 kmh 29.95 in1014.2 mb 0.00 in0.0 mm 0.00 in/hr0.0 mm/hr 0.00 in0.0 mm
12:10 AM 77.9°F25.5°C 73.4°F23.0°C 86% Calm Calm 2.1 mph3.4 kmh 29.94 in1013.9 mb 0.00 in0.0 mm 0.00 in/hr0.0 mm/hr 0.00 in0.0 mm
12:00 AM 78.1°F25.6°C 73.2°F22.9°C 85% 1.1 mph S1.8 kmh S 4.2 mph6.8 kmh 29.94 in1013.9 mb 0.00 in0.0 mm 0.00 in/hr0.0 mm/hr 0.00 in0.0 mm